Time;durP1;ratioP1;P1;durP2;ratioP2;P2;SDS_P1;SDS_P2;PMS_P1;PMS_P2;Temp;Humidity;BMP_temperature;BMP_pressure;BME280_temperature;BME280_humidity;BME280_pressure;Samples;Min_cycle;Max_cycle;Signal;HPM_P1;HPM_P2
2022/04/09 00:00:40;;;;;;;0.50;0.47;;;;;;;13.91;39.19;92974.72;5053355;28;20021;-64
2022/04/09 00:03:05;;;;;;;0.52;0.30;;;;;;;12.93;40.04;92907.88;5053519;28;20013;-64
2022/04/09 00:05:30;;;;;;;3.05;0.30;;;;;;;13.74;39.75;93051.78;5053541;28;20025;-64
2022/04/09 00:07:56;;;;;;;1.85;0.52;;;;;;;13.96;39.50;93066.00;5053632;28;20074;-63
2022/04/09 00:10:21;;;;;;;1.20;0.40;;;;;;;13.68;39.12;92977.72;5053040;28;20570;-63
2022/04/09 00:12:47;;;;;;;2.45;0.60;;;;;;;13.18;39.69;92937.38;5053399;28;20025;-63
2022/04/09 00:15:13;;;;;;;1.08;0.38;;;;;;;13.30;39.94;92950.44;5053530;28;20138;-63
2022/04/09 00:17:41;;;;;;;0.77;0.20;;;;;;;14.20;40.40;93091.31;5053299;28;20029;-64
2022/04/09 00:20:11;;;;;;;0.68;0.30;;;;;;;13.50;39.84;92934.88;5052923;28;20017;-64
2022/04/09 00:22:38;;;;;;;0.57;0.30;;;;;;;14.70;40.64;93122.84;5053305;28;20142;-64
2022/04/09 00:25:11;;;;;;;0.40;0.25;;;;;;;13.38;41.45;93034.78;5053237;28;20025;-63
2022/04/09 00:27:37;;;;;;;0.50;0.20;;;;;;;12.78;43.25;92987.06;5053244;28;20025;-64
2022/04/09 00:30:04;;;;;;;2.67;0.38;;;;;;;12.59;45.28;93035.28;5052880;28;20031;-63
2022/04/09 00:32:30;;;;;;;1.50;0.32;;;;;;;12.69;46.87;93039.94;5052711;28;20548;-64
2022/04/09 00:34:55;;;;;;;3.50;0.32;;;;;;;12.22;47.97;93046.72;5053076;28;20100;-63
2022/04/09 00:37:20;;;;;;;1.75;0.47;;;;;;;12.89;48.24;93057.28;5052839;28;20762;-63
2022/04/09 00:39:46;;;;;;;0.73;0.43;;;;;;;12.00;49.73;93021.75;5053023;28;20031;-64
2022/04/09 00:42:16;;;;;;;0.98;0.20;;;;;;;12.55;50.78;93125.94;5052519;28;20059;-64
2022/04/09 00:44:42;;;;;;;0.75;0.38;;;;;;;12.00;54.32;93128.34;5052894;28;20033;-64
2022/04/09 00:47:07;;;;;;;1.48;0.43;;;;;;;11.61;56.94;93165.03;5051549;28;20387;-63
2022/04/09 00:49:39;;;;;;;1.00;0.70;;;;;;;10.58;61.84;93087.00;5052810;28;20096;-63
2022/04/09 00:52:07;;;;;;;0.85;0.43;;;;;;;9.99;62.88;93054.41;5052478;28;20543;-63
2022/04/09 00:54:34;;;;;;;1.58;0.38;;;;;;;11.50;64.01;93339.84;5052472;28;20043;-63
2022/04/09 00:57:07;;;;;;;0.82;0.45;;;;;;;10.38;64.72;93129.53;5052626;28;20477;-62
2022/04/09 00:59:38;;;;;;;1.55;0.55;;;;;;;9.66;67.24;93131.06;5052450;28;20079;-62
2022/04/09 01:02:04;;;;;;;1.42;0.40;;;;;;;10.14;66.82;93174.97;5034299;28;20031;-62
2022/04/09 01:04:33;;;;;;;0.40;0.28;;;;;;;10.63;67.26;93355.22;5052330;28;20021;-63
2022/04/09 01:07:02;;;;;;;3.50;1.48;;;;;;;10.90;66.63;93303.75;5052583;28;20116;-63
2022/04/09 01:09:28;;;;;;;0.77;0.30;;;;;;;10.34;67.18;93213.00;5052430;28;20371;-63
2022/04/09 01:11:54;;;;;;;5.28;0.45;;;;;;;10.67;66.99;93340.13;5051953;28;20032;-63
2022/04/09 01:14:19;;;;;;;0.28;0.28;;;;;;;9.87;66.87;93426.28;5052252;28;20028;-62
2022/04/09 01:16:45;;;;;;;1.38;0.50;;;;;;;6.91;75.65;93240.81;5052187;28;20473;-62
2022/04/09 01:19:10;;;;;;;5.40;0.52;;;;;;;7.19;78.95;93338.03;5052243;28;20028;-62
2022/04/09 01:21:35;;;;;;;1.13;0.47;;;;;;;6.92;78.98;93315.59;5051820;28;20032;-62
2022/04/09 01:24:01;;;;;;;5.18;0.45;;;;;;;6.59;80.10;93315.53;5052027;28;20521;-62
2022/04/09 01:26:26;;;;;;;1.58;0.30;;;;;;;6.57;79.53;93296.63;5052093;28;20055;-63
2022/04/09 01:28:53;;;;;;;0.00;0.00;;;;;;;5.92;79.43;93285.56;5052002;28;20028;-62
2022/04/09 01:31:18;;;;;;;0.43;0.32;;;;;;;6.87;79.33;93443.41;5051560;28;20035;-63
2022/04/09 01:33:44;;;;;;;0.90;0.35;;;;;;;6.78;79.27;93381.91;5051824;28;20090;-62
2022/04/09 01:36:10;;;;;;;0.20;0.20;;;;;;;7.30;78.51;93481.97;5051986;28;20134;-63
2022/04/09 01:38:37;;;;;;;0.00;0.00;;;;;;;5.50;78.16;93245.88;5033796;28;20543;-63
2022/04/09 01:41:04;;;;;;;0.43;0.20;;;;;;;5.64;79.36;93346.66;5051256;28;20076;-63
2022/04/09 01:43:30;;;;;;;0.40;0.20;;;;;;;5.69;79.43;93329.88;5052037;28;20021;-63
2022/04/09 01:45:55;;;;;;;0.20;0.20;;;;;;;5.37;78.64;93302.97;5051714;28;20381;-63
2022/04/09 01:48:20;;;;;;;0.20;0.05;;;;;;;6.09;79.53;93451.75;5051215;28;20017;-63
2022/04/09 01:50:46;;;;;;;1.35;0.00;;;;;;;5.89;79.30;93453.19;5033185;28;20032;-63
2022/04/09 01:53:12;;;;;;;1.08;0.20;;;;;;;6.57;79.63;93524.56;5051569;28;20036;-62
2022/04/09 01:55:39;;;;;;;0.40;0.35;;;;;;;5.35;79.12;93322.84;5051668;28;20017;-62
2022/04/09 01:58:04;;;;;;;0.10;0.10;;;;;;;5.45;79.76;93454.34;5051324;28;20056;-63
2022/04/09 02:00:30;;;;;;;0.80;0.80;;;;;;;4.54;77.86;93361.22;5051075;28;20060;-63
2022/04/09 02:02:56;;;;;;;0.95;0.38;;;;;;;5.29;77.18;93637.84;5051303;28;20021;-62
2022/04/09 02:05:22;;;;;;;0.10;0.10;;;;;;;4.13;76.88;93509.75;5051448;28;20056;-62
2022/04/09 02:07:48;;;;;;;0.30;0.30;;;;;;;4.49;78.42;93594.94;5051312;28;20029;-62
2022/04/09 02:10:15;;;;;;;0.52;0.52;;;;;;;3.51;78.80;93519.47;5050974;28;20056;-63
2022/04/09 02:12:41;;;;;;;0.50;0.50;;;;;;;3.90;79.64;93695.03;5051345;28;20154;-62
2022/04/09 02:15:09;;;;;;;0.63;0.63;;;;;;;3.25;79.43;93605.97;5051192;28;20478;-62
2022/04/09 02:17:41;;;;;;;12.98;2.55;;;;;;;3.74;77.44;93639.34;5051119;28;20378;-62
2022/04/09 02:20:08;;;;;;;2.45;2.15;;;;;;;3.76;77.43;93744.25;5050054;28;20103;-63
2022/04/09 02:22:38;;;;;;;0.43;0.43;;;;;;;2.24;79.80;93659.31;5050045;28;20028;-62
2022/04/09 02:25:04;;;;;;;2.60;2.40;;;;;;;2.35;78.90;93655.44;5050973;28;20033;-62
2022/04/09 02:27:30;;;;;;;3.15;1.55;;;;;;;2.77;78.68;93774.47;5050928;28;20036;-63
2022/04/09 02:29:55;;;;;;;4.50;3.38;;;;;;;3.28;79.36;93810.38;5051237;28;20028;-63
2022/04/09 02:32:21;;;;;;;1.98;1.77;;;;;;;1.25;79.66;93602.59;5050481;28;20033;-63
2022/04/09 02:34:46;;;;;;;2.63;2.42;;;;;;;2.27;81.02;93753.19;5051005;28;20029;-63
2022/04/09 02:37:12;;;;;;;1.92;1.75;;;;;;;1.02;80.88;93607.63;5050810;28;20029;-63
2022/04/09 02:39:37;;;;;;;3.50;3.20;;;;;;;1.63;81.12;93713.44;5050808;28;20060;-63
2022/04/09 02:42:03;;;;;;;2.53;2.28;;;;;;;1.80;81.56;93673.63;5050505;28;20029;-63
2022/04/09 02:44:30;;;;;;;5.70;5.15;;;;;;;2.09;79.88;93724.06;5050969;28;20029;-63
2022/04/09 02:46:56;;;;;;;4.50;4.10;;;;;;;2.29;78.88;93733.47;5050923;28;20389;-64
2022/04/09 02:49:21;;;;;;;1.92;1.73;;;;;;;2.30;79.95;93774.41;5050873;28;20060;-63
2022/04/09 02:51:46;;;;;;;6.65;5.90;;;;;;;2.18;80.24;93775.88;5050337;28;20033;-63
2022/04/09 02:54:15;;;;;;;2.05;1.80;;;;;;;2.48;81.46;93922.41;5050642;28;20108;-63
2022/04/09 02:56:44;;;;;;;6.47;4.85;;;;;;;2.80;80.21;93897.28;5050869;28;20113;-63
2022/04/09 02:59:10;;;;;;;4.45;3.78;;;;;;;2.12;79.76;93860.97;5051082;28;20029;-63
2022/04/09 03:01:36;;;;;;;6.15;5.47;;;;;;;2.98;79.13;93943.78;5054416;28;20489;-63
2022/04/09 03:04:01;;;;;;;5.13;4.28;;;;;;;2.15;79.88;93852.50;5036974;28;20021;-63
2022/04/09 03:06:27;;;;;;;1.95;1.80;;;;;;;2.29;80.65;93968.84;5054768;28;20025;-63
2022/04/09 03:08:52;;;;;;;2.78;2.55;;;;;;;2.50;80.18;93974.63;5054603;28;20029;-64
2022/04/09 03:11:17;;;;;;;3.33;2.97;;;;;;;2.49;80.62;93988.81;5054297;28;20555;-64
2022/04/09 03:13:43;;;;;;;6.20;5.60;;;;;;;1.96;80.08;93910.19;5054357;28;20028;-64
2022/04/09 03:16:08;;;;;;;5.18;4.65;;;;;;;3.06;80.07;94066.59;5054463;28;20029;-64
2022/04/09 03:18:34;;;;;;;3.00;1.70;;;;;;;3.40;78.18;94128.72;5054388;28;20078;-64
2022/04/09 03:20:59;;;;;;;6.57;5.65;;;;;;;2.34;78.22;93913.66;5054209;28;20029;-64
2022/04/09 03:23:24;;;;;;;8.95;8.05;;;;;;;2.87;77.68;93952.88;5054203;28;20028;-64
2022/04/09 03:25:50;;;;;;;9.60;7.55;;;;;;;2.40;78.21;93972.91;5054273;28;20397;-65
2022/04/09 03:28:15;;;;;;;5.53;4.88;;;;;;;2.49;78.94;94028.97;5054283;28;20025;-63
2022/04/09 03:30:44;;;;;;;41.20;8.38;;;;;;;3.08;78.43;94117.03;5054124;28;20064;-64
2022/04/09 03:33:09;;;;;;;10.73;8.15;;;;;;;3.45;78.67;94135.75;5054390;28;20390;-64
2022/04/09 03:35:35;;;;;;;11.57;8.82;;;;;;;2.96;78.95;94089.59;5054341;28;20025;-65
2022/04/09 03:38:00;;;;;;;11.30;8.98;;;;;;;2.46;78.14;94005.91;5053959;28;20029;-65
2022/04/09 03:40:26;;;;;;;10.35;8.68;;;;;;;3.17;79.40;94130.31;5054033;28;20170;-64
2022/04/09 03:42:51;;;;;;;10.25;8.52;;;;;;;2.62;78.26;94029.38;5053984;28;20024;-64
2022/04/09 03:45:16;;;;;;;3.90;3.47;;;;;;;2.19;78.56;94058.16;5053953;28;20028;-64
2022/04/09 03:47:42;;;;;;;11.18;8.45;;;;;;;2.52;79.51;94106.38;5053999;28;20036;-64
2022/04/09 03:50:07;;;;;;;12.63;9.90;;;;;;;3.38;78.28;94160.56;5053726;28;20095;-63
2022/04/09 03:52:33;;;;;;;6.00;5.13;;;;;;;2.90;78.50;94154.53;5053636;28;20655;-65
2022/04/09 03:54:58;;;;;;;11.05;8.82;;;;;;;2.33;78.34;94066.94;5053804;28;20029;-65
2022/04/09 03:57:24;;;;;;;13.88;10.90;;;;;;;3.61;76.83;94156.31;5053627;28;20048;-63
2022/04/09 03:59:54;;;;;;;14.77;10.80;;;;;;;3.51;76.00;94140.66;5053691;28;20476;-63
2022/04/09 04:02:19;;;;;;;11.38;9.57;;;;;;;3.61;76.45;94202.84;5053299;28;20029;-64
2022/04/09 04:04:44;;;;;;;8.65;6.88;;;;;;;2.89;76.76;94097.03;5053617;28;20511;-63
2022/04/09 04:07:10;;;;;;;15.95;11.05;;;;;;;3.16;75.92;94101.69;5053594;28;20029;-64
2022/04/09 04:09:36;;;;;;;12.43;11.10;;;;;;;3.12;76.38;94139.06;5053469;28;20072;-64
2022/04/09 04:12:01;;;;;;;6.60;4.32;;;;;;;3.10;77.01;94212.13;5052633;28;20104;-64
2022/04/09 04:14:28;;;;;;;11.10;8.85;;;;;;;2.63;77.77;94126.22;5053226;28;20092;-63
2022/04/09 04:16:54;;;;;;;7.13;5.15;;;;;;;2.73;76.88;94164.72;5053407;28;20067;-64
2022/04/09 04:19:19;;;;;;;7.05;6.03;;;;;;;2.82;77.04;94186.69;5053166;28;20055;-64
2022/04/09 04:21:44;;;;;;;10.68;6.18;;;;;;;2.69;77.54;94176.81;5052692;28;20120;-64
2022/04/09 04:24:10;;;;;;;14.55;10.50;;;;;;;3.50;75.92;94217.19;5053136;28;20381;-63
2022/04/09 04:26:35;;;;;;;17.17;11.70;;;;;;;3.50;75.96;94235.59;5053328;28;20104;-64
2022/04/09 04:29:00;;;;;;;6.63;5.22;;;;;;;3.35;78.14;94342.47;5035300;28;20025;-64
2022/04/09 04:31:26;;;;;;;6.15;5.20;;;;;;;2.62;77.30;94210.50;5052695;28;20025;-64
2022/04/09 04:33:51;;;;;;;5.60;3.92;;;;;;;2.43;76.65;94137.69;5052997;28;20784;-64
2022/04/09 04:36:17;;;;;;;13.68;9.68;;;;;;;3.81;76.47;94278.09;5052929;28;20025;-64
2022/04/09 04:38:42;;;;;;;7.78;5.95;;;;;;;3.54;76.04;94316.28;5053044;28;20098;-65
2022/04/09 04:41:07;;;;;;;10.15;8.45;;;;;;;3.83;75.11;94299.63;5052496;28;20131;-64
2022/04/09 04:43:33;;;;;;;13.52;9.13;;;;;;;3.99;74.02;94292.31;5052810;28;20052;-65
2022/04/09 04:45:59;;;;;;;11.43;8.40;;;;;;;3.76;74.20;94281.56;5052919;28;20032;-64
2022/04/09 04:48:24;;;;;;;13.57;10.20;;;;;;;4.09;72.65;94255.34;5034843;28;20036;-65
2022/04/09 04:50:50;;;;;;;12.60;8.25;;;;;;;4.12;72.69;94312.69;5052420;28;20106;-64
2022/04/09 04:53:15;;;;;;;13.65;8.70;;;;;;;3.89;73.68;94303.78;5052684;28;20021;-64
2022/04/09 04:55:41;;;;;;;8.98;6.88;;;;;;;3.23;75.35;94283.47;5052866;28;20047;-64
2022/04/09 04:58:06;;;;;;;12.63;9.23;;;;;;;3.78;75.27;94336.50;5052491;28;20064;-65
2022/04/09 05:00:33;;;;;;;11.32;8.20;;;;;;;3.81;75.15;94352.53;5034161;28;20051;-64
2022/04/09 05:02:59;;;;;;;12.05;8.50;;;;;;;3.41;75.66;94287.22;5052460;28;20492;-65
2022/04/09 05:05:24;;;;;;;11.02;7.68;;;;;;;3.94;76.23;94447.63;5052293;28;20025;-64
2022/04/09 05:07:51;;;;;;;6.85;3.38;;;;;;;3.42;77.48;94467.56;5051201;28;20428;-65
2022/04/09 05:10:19;;;;;;;12.60;8.50;;;;;;;3.32;77.46;94408.75;5052004;28;20021;-65
2022/04/09 05:12:46;;;;;;;12.25;8.70;;;;;;;3.11;77.27;94341.66;5052023;28;20025;-64
2022/04/09 05:15:13;;;;;;;7.45;5.82;;;;;;;2.94;76.98;94343.91;5052229;28;20055;-64
2022/04/09 05:17:39;;;;;;;11.00;7.60;;;;;;;3.32;76.98;94421.88;5052210;28;20024;-65
2022/04/09 05:20:06;;;;;;;8.07;5.93;;;;;;;3.01;76.81;94394.28;5051776;28;20034;-65
2022/04/09 05:22:32;;;;;;;11.27;7.57;;;;;;;3.37;76.05;94413.94;5050929;28;20056;-64
2022/04/09 05:24:58;;;;;;;14.20;10.25;;;;;;;3.71;74.92;94407.09;5052229;28;20490;-64
2022/04/09 05:27:24;;;;;;;13.40;10.40;;;;;;;4.41;74.12;94460.81;5038083;28;20052;-65
2022/04/09 05:29:50;;;;;;;14.90;10.77;;;;;;;4.05;73.49;94446.47;5072297;28;20033;-63
2022/04/09 05:32:17;;;;;;;18.08;11.73;;;;;;;4.77;72.70;94463.00;5071840;28;20031;-64
2022/04/09 05:34:43;;;;;;;15.98;11.25;;;;;;;4.87;72.04;94499.78;5071962;28;20115;-62
2022/04/09 05:37:08;;;;;;;18.63;10.45;;;;;;;4.18;73.58;94499.22;5072138;28;20099;-62
2022/04/09 05:39:34;;;;;;;10.05;8.35;;;;;;;4.23;73.72;94550.25;5054166;28;20082;-62
2022/04/09 05:42:00;;;;;;;12.88;9.98;;;;;;;3.90;73.77;94456.09;5071217;28;20542;-62
2022/04/09 05:44:25;;;;;;;12.15;7.10;;;;;;;4.00;73.34;94528.88;5071454;28;20047;-62
2022/04/09 05:46:51;;;;;;;8.40;7.30;;;;;;;3.85;76.51;94614.00;5071932;28;20029;-62
2022/04/09 05:49:16;;;;;;;11.13;7.80;;;;;;;4.27;75.35;94607.34;5071949;28;20048;-62
2022/04/09 05:51:43;;;;;;;12.10;9.13;;;;;;;3.26;75.56;94448.47;5071363;28;20794;-62
2022/04/09 05:54:08;;;;;;;8.63;7.25;;;;;;;2.39;77.40;94430.63;5071654;28;20100;-62
2022/04/09 05:56:33;;;;;;;7.93;6.40;;;;;;;3.21;78.36;94580.72;5053791;28;20435;-62
2022/04/09 05:58:59;;;;;;;7.57;5.50;;;;;;;2.49;78.94;94498.03;5070687;28;20039;-62
2022/04/09 06:01:24;;;;;;;16.52;10.57;;;;;;;4.02;76.94;94591.75;5071142;28;20020;-62
2022/04/09 06:03:50;;;;;;;9.10;8.15;;;;;;;3.26;77.33;94517.59;5071111;28;20104;-62
2022/04/09 06:06:15;;;;;;;10.90;7.50;;;;;;;3.74;78.10;94633.53;5071479;28;20066;-62
2022/04/09 06:08:40;;;;;;;11.43;9.95;;;;;;;3.66;76.19;94542.06;5071341;28;20024;-62
2022/04/09 06:11:06;;;;;;;13.52;12.05;;;;;;;3.78;76.02;94531.94;5070832;28;20036;-62
2022/04/09 06:13:32;;;;;;;7.75;6.07;;;;;;;3.76;77.34;94644.56;5052500;28;20040;-63
2022/04/09 06:15:57;;;;;;;4.57;3.78;;;;;;;3.13;77.95;94587.34;5071080;28;20027;-63
2022/04/09 06:18:23;;;;;;;10.25;9.18;;;;;;;3.67;77.41;94596.22;5071265;28;20056;-63
2022/04/09 06:20:48;;;;;;;8.07;5.90;;;;;;;2.94;77.57;94559.31;5070935;28;20050;-63
2022/04/09 06:23:14;;;;;;;11.63;10.00;;;;;;;3.45;76.98;94546.66;5071181;28;20023;-63
2022/04/09 06:25:39;;;;;;;9.95;7.82;;;;;;;3.05;77.14;94551.09;5053182;28;20381;-63
2022/04/09 06:28:05;;;;;;;8.38;6.22;;;;;;;3.02;77.79;94554.28;5070223;28;20029;-62
2022/04/09 06:30:30;;;;;;;7.57;6.70;;;;;;;3.17;78.33;94578.88;5070888;28;20074;-62
2022/04/09 06:32:56;;;;;;;7.43;6.72;;;;;;;3.33;77.47;94615.38;5070841;28;20055;-62
2022/04/09 06:35:22;;;;;;;7.53;6.88;;;;;;;3.37;75.79;94570.91;5071069;28;20029;-62
2022/04/09 06:37:47;;;;;;;6.35;5.75;;;;;;;3.29;75.71;94584.63;5070760;28;20032;-63
2022/04/09 06:40:13;;;;;;;6.75;6.15;;;;;;;3.61;77.59;94642.81;5070755;28;20036;-62
2022/04/09 06:42:39;;;;;;;10.15;9.18;;;;;;;3.61;76.54;94556.03;5070133;28;20024;-61
2022/04/09 06:45:07;;;;;;;7.85;7.05;;;;;;;3.01;76.03;94554.53;5070893;28;20122;-62
2022/04/09 06:47:38;;;;;;;8.82;7.97;;;;;;;3.49;75.26;94616.06;5070810;28;20075;-62
2022/04/09 06:50:08;;;;;;;8.45;7.75;;;;;;;3.50;76.01;94625.53;5070830;28;20048;-62
2022/04/09 06:52:33;;;;;;;8.50;7.80;;;;;;;3.94;75.31;94622.06;5070814;28;20069;-63
2022/04/09 06:54:59;;;;;;;7.82;7.07;;;;;;;4.35;73.97;94617.28;5071189;28;20107;-62
2022/04/09 06:57:24;;;;;;;4.45;4.00;;;;;;;3.17;76.13;94610.44;5070653;28;20048;-63
2022/04/09 06:59:49;;;;;;;7.22;6.53;;;;;;;3.48;75.31;94601.34;5070152;28;20047;-63
2022/04/09 07:02:15;;;;;;;7.18;6.28;;;;;;;4.02;75.55;94700.44;5070299;28;20050;-63
2022/04/09 07:04:40;;;;;;;6.15;5.45;;;;;;;4.09;75.23;94744.88;5070769;28;20106;-63
2022/04/09 07:07:05;;;;;;;4.95;4.55;;;;;;;3.59;75.89;94694.91;5070844;28;20048;-62
2022/04/09 07:09:31;;;;;;;11.95;7.45;;;;;;;3.49;75.53;94610.03;5052314;28;20029;-62
2022/04/09 07:11:56;;;;;;;8.75;5.90;;;;;;;3.38;74.98;94622.44;5070088;28;20393;-64
2022/04/09 07:14:22;;;;;;;6.93;6.32;;;;;;;3.91;74.83;94648.94;5070004;28;20035;-61
2022/04/09 07:16:48;;;;;;;6.93;6.32;;;;;;;3.33;76.00;94628.50;5070589;28;20031;-61
2022/04/09 07:19:14;;;;;;;7.03;6.32;;;;;;;3.96;74.20;94658.66;5070540;28;20557;-61
2022/04/09 07:21:39;;;;;;;7.22;6.60;;;;;;;4.91;76.48;94726.59;5051331;28;20123;-63
2022/04/09 07:24:05;;;;;;;8.45;7.60;;;;;;;5.53;73.27;94730.22;5071069;28;20047;-64
2022/04/09 07:26:31;;;;;;;6.53;5.93;;;;;;;5.56;72.51;94737.53;5071222;28;20103;-64
2022/04/09 07:28:56;;;;;;;6.20;5.60;;;;;;;5.83;72.04;94752.78;5070133;28;20489;-64
2022/04/09 07:31:22;;;;;;;7.85;7.03;;;;;;;5.81;71.69;94751.50;5070072;28;20039;-64
2022/04/09 07:33:47;;;;;;;6.68;5.70;;;;;;;5.33;72.19;94747.03;5070653;28;20089;-63
2022/04/09 07:36:13;;;;;;;6.63;6.03;;;;;;;5.25;70.94;94767.97;5070876;28;20090;-65
2022/04/09 07:38:38;;;;;;;6.80;5.90;;;;;;;5.58;70.40;94731.97;5070490;28;20039;-65
2022/04/09 07:41:04;;;;;;;7.05;6.35;;;;;;;4.76;71.70;94664.31;5070107;28;20116;-64
2022/04/09 07:43:29;;;;;;;7.00;6.40;;;;;;;4.65;71.81;94705.75;5069776;28;20058;-68
2022/04/09 07:45:55;;;;;;;4.28;3.88;;;;;;;4.55;71.10;94744.56;5072054;28;20474;-63
2022/04/09 07:48:21;;;;;;;7.32;4.70;;;;;;;4.07;71.19;94652.25;5074423;28;20088;-63
2022/04/09 07:50:46;;;;;;;10.43;6.97;;;;;;;5.52;69.92;94768.19;5073549;28;20107;-65
2022/04/09 07:53:12;;;;;;;8.93;7.90;;;;;;;5.71;69.47;94744.50;5073894;28;20025;-63
2022/04/09 07:55:37;;;;;;;6.15;5.55;;;;;;;4.40;68.86;94669.09;5074102;28;20047;-65
2022/04/09 07:58:09;;;;;;;8.07;7.28;;;;;;;5.54;69.27;94810.13;5073708;28;20043;-64
2022/04/09 08:00:34;;;;;;;5.97;5.43;;;;;;;4.05;71.75;94702.53;5072928;28;20025;-64
2022/04/09 08:03:00;;;;;;;6.28;5.68;;;;;;;5.02;70.10;94788.75;5073644;28;20029;-65
2022/04/09 08:05:25;;;;;;;7.32;6.65;;;;;;;5.40;69.49;94781.78;5073705;28;20380;-64
2022/04/09 08:07:50;;;;;;;9.82;7.03;;;;;;;5.30;69.72;94757.34;5073510;28;20032;-65
2022/04/09 08:10:16;;;;;;;9.35;8.15;;;;;;;5.48;70.47;94801.50;5072895;28;20024;-67
2022/04/09 08:12:42;;;;;;;12.27;5.57;;;;;;;4.73;69.23;94714.94;5072794;28;20028;-67
2022/04/09 08:15:09;;;;;;;6.68;5.65;;;;;;;3.93;69.24;94686.28;5068260;28;20032;-64
2022/04/09 08:17:38;;;;;;;10.25;8.57;;;;;;;4.83;69.35;94782.56;5073784;28;20063;-64
2022/04/09 08:20:06;;;;;;;10.63;9.32;;;;;;;5.39;69.69;94805.78;5073360;28;20481;-64
2022/04/09 08:22:32;;;;;;;9.00;7.53;;;;;;;4.60;70.32;94728.72;5073435;28;20498;-64
2022/04/09 08:24:58;;;;;;;8.32;7.40;;;;;;;5.23;69.42;94794.63;5073709;28;20080;-66
2022/04/09 08:27:23;;;;;;;11.13;7.65;;;;;;;4.53;68.78;94697.44;5073389;28;20027;-68
2022/04/09 08:29:49;;;;;;;11.70;7.75;;;;;;;4.49;69.31;94719.34;5072768;28;20032;-64
2022/04/09 08:32:15;;;;;;;9.13;5.60;;;;;;;4.80;68.09;94823.41;5073034;28;20145;-65
2022/04/09 08:34:40;;;;;;;9.13;7.00;;;;;;;4.61;68.54;94789.06;5073319;28;20443;-64
2022/04/09 08:37:08;;;;;;;7.55;4.85;;;;;;;4.47;68.00;94824.97;5073264;28;20013;-66
2022/04/09 08:39:34;;;;;;;10.48;9.43;;;;;;;4.83;68.23;94733.28;5073214;28;20074;-65
2022/04/09 08:42:01;;;;;;;11.75;9.38;;;;;;;5.06;67.20;94747.56;5072768;28;20032;-65
2022/04/09 08:44:28;;;;;;;9.80;8.80;;;;;;;5.98;66.87;94852.16;5072420;28;20050;-67
2022/04/09 08:46:53;;;;;;;12.07;8.65;;;;;;;5.85;66.28;94740.09;5073030;28;20028;-64
2022/04/09 08:49:20;;;;;;;10.35;8.82;;;;;;;5.83;66.74;94765.97;5072899;28;20173;-64
2022/04/09 08:51:46;;;;;;;9.50;8.63;;;;;;;7.15;66.64;94730.78;5054858;28;20404;-66
2022/04/09 08:54:12;;;;;;;4.70;4.22;;;;;;;5.97;63.68;94830.25;5073032;28;20028;-66
2022/04/09 08:56:38;;;;;;;4.70;4.13;;;;;;;5.07;63.42;94735.97;5072602;28;20025;-67
2022/04/09 08:59:04;;;;;;;6.68;5.97;;;;;;;6.41;62.06;94706.88;5071854;28;21005;-65
2022/04/09 09:01:30;;;;;;;3.80;3.08;;;;;;;5.75;58.79;94811.50;5072164;28;20025;-64
2022/04/09 09:03:57;;;;;;;3.67;2.90;;;;;;;4.95;59.87;94741.59;5054408;28;20141;-64
2022/04/09 09:06:35;;;;;;;4.18;3.08;;;;;;;5.19;57.51;94709.22;5072273;28;20039;-64
2022/04/09 09:09:02;;;;;;;4.97;3.40;;;;;;;6.11;56.09;94838.28;5072323;28;20093;-64
2022/04/09 09:11:29;;;;;;;6.20;4.60;;;;;;;5.77;56.97;94763.69;5071793;28;20029;-65
2022/04/09 09:14:00;;;;;;;4.00;2.58;;;;;;;4.76;56.19;94721.47;5071773;28;20051;-64
2022/04/09 09:16:28;;;;;;;3.88;3.10;;;;;;;5.48;55.45;94732.91;5072171;28;20017;-67
2022/04/09 09:18:56;;;;;;;4.38;3.45;;;;;;;6.73;55.56;94772.97;5072266;28;20504;-65
2022/04/09 09:21:28;;;;;;;3.10;2.80;;;;;;;6.96;51.23;94800.38;5071662;28;20024;-65
2022/04/09 09:24:09;;;;;;;3.95;3.53;;;;;;;7.91;49.02;94811.41;5072118;28;20028;-70
2022/04/09 09:26:39;;;;;;;2.10;1.90;;;;;;;5.95;48.36;94731.31;5054160;28;20032;-67
2022/04/09 09:29:06;;;;;;;4.68;3.10;;;;;;;7.23;50.28;94799.66;5071227;28;20033;-64
2022/04/09 09:31:43;;;;;;;3.63;2.50;;;;;;;6.99;47.26;94849.25;5071840;28;20074;-64
2022/04/09 09:34:19;;;;;;;3.92;2.47;;;;;;;7.63;47.14;94831.81;5072475;28;20028;-64
2022/04/09 09:36:45;;;;;;;4.15;2.80;;;;;;;7.70;46.23;94736.09;5072168;28;20035;-65
2022/04/09 09:39:12;;;;;;;2.10;1.73;;;;;;;6.99;48.39;94875.69;5072516;28;20028;-65
2022/04/09 09:41:50;;;;;;;4.68;3.20;;;;;;;6.79;47.38;94760.47;5071687;28;20099;-65
2022/04/09 09:44:17;;;;;;;3.63;2.53;;;;;;;6.57;47.87;94742.56;5071263;28;20027;-65
2022/04/09 09:46:45;;;;;;;3.28;2.40;;;;;;;7.24;46.62;94785.38;5071956;28;20052;-65
2022/04/09 09:49:10;;;;;;;4.75;3.22;;;;;;;7.28;46.45;94699.06;5071483;28;20540;-64
2022/04/09 09:51:36;;;;;;;3.60;3.15;;;;;;;8.39;45.37;94882.53;5071201;28;20103;-64
2022/04/09 09:54:10;;;;;;;3.03;2.72;;;;;;;6.55;48.11;94717.50;5071513;28;20047;-64
2022/04/09 09:56:37;;;;;;;3.67;2.78;;;;;;;6.70;48.16;94876.63;5071170;28;20039;-65
2022/04/09 09:59:05;;;;;;;4.05;3.40;;;;;;;6.68;48.29;94762.47;5053386;28;20090;-65
2022/04/09 10:01:36;;;;;;;3.63;3.40;;;;;;;7.12;50.36;94858.34;5070197;28;20032;-64
2022/04/09 10:04:04;;;;;;;3.63;3.03;;;;;;;6.31;48.22;94750.09;5071208;28;20051;-65
2022/04/09 10:06:31;;;;;;;5.20;2.50;;;;;;;6.36;47.14;94763.22;5071187;28;20028;-65
2022/04/09 10:08:58;;;;;;;4.25;2.78;;;;;;;6.66;47.74;94730.28;5070920;28;20028;-65
2022/04/09 10:11:25;;;;;;;4.50;2.22;;;;;;;7.58;45.09;94831.91;5070745;28;20021;-65
2022/04/09 10:13:52;;;;;;;3.85;2.00;;;;;;;6.59;46.62;94764.19;5071468;28;20027;-65
2022/04/09 10:16:18;;;;;;;4.50;1.80;;;;;;;6.88;44.73;94734.16;5070484;28;20040;-66
2022/04/09 10:18:48;;;;;;;2.88;2.30;;;;;;;7.13;45.45;94693.25;5071143;28;20056;-65
2022/04/09 10:21:13;;;;;;;5.95;2.40;;;;;;;9.08;42.93;94898.34;5070772;28;20020;-65
2022/04/09 10:23:40;;;;;;;3.75;2.47;;;;;;;6.99;45.12;94749.56;5071112;28;20074;-67
2022/04/09 10:26:06;;;;;;;3.67;3.10;;;;;;;6.76;46.13;94701.03;5070985;28;20129;-65
2022/04/09 10:28:38;;;;;;;5.32;2.65;;;;;;;7.26;45.16;94748.81;5070923;28;20728;-67
2022/04/09 10:31:22;;;;;;;3.97;2.42;;;;;;;7.80;45.68;94874.38;5070042;28;20358;-66
2022/04/09 10:33:55;;;;;;;3.63;2.63;;;;;;;7.15;45.29;94738.72;5070895;28;20016;-66
2022/04/09 10:36:45;;;;;;;6.45;2.40;;;;;;;8.38;44.31;94880.97;5071221;28;20091;-65
2022/04/09 10:39:29;;;;;;;4.78;2.38;;;;;;;8.79;43.61;94793.41;5070861;28;20394;-64
2022/04/09 10:41:56;;;;;;;5.03;2.40;;;;;;;9.09;42.28;94748.69;5070494;28;20029;-66
2022/04/09 10:44:44;;;;;;;2.13;1.92;;;;;;;8.42;44.15;94820.22;5070877;28;20028;-65
2022/04/09 10:47:14;;;;;;;2.97;2.25;;;;;;;9.67;41.61;94753.00;5061270;28;20043;-66
2022/04/09 10:49:40;;;;;;;3.97;2.45;;;;;;;7.92;43.56;94738.81;5071029;28;20114;-66
2022/04/09 10:52:06;;;;;;;6.43;2.47;;;;;;;8.92;43.28;94891.81;5070460;28;20384;-65
2022/04/09 10:54:33;;;;;;;3.03;1.45;;;;;;;7.41;45.54;94895.94;5070781;28;20111;-65
2022/04/09 10:57:09;;;;;;;3.05;1.88;;;;;;;6.92;45.65;94831.13;5070915;28;20059;-65
2022/04/09 10:59:37;;;;;;;2.00;1.80;;;;;;;6.77;45.55;94765.25;5070777;28;20033;-65
2022/04/09 11:02:04;;;;;;;4.57;2.03;;;;;;;6.74;47.08;94816.81;5069532;28;20056;-65
2022/04/09 11:04:29;;;;;;;3.88;2.50;;;;;;;8.54;44.14;94854.94;5070471;28;20039;-65
2022/04/09 11:07:17;;;;;;;2.38;1.92;;;;;;;7.59;44.06;94859.94;5070707;28;20087;-65
2022/04/09 11:09:50;;;;;;;4.20;3.00;;;;;;;8.33;45.79;94897.75;5070347;28;20041;-65
2022/04/09 11:12:21;;;;;;;3.08;1.50;;;;;;;7.12;45.08;94808.84;5070215;28;20366;-65
2022/04/09 11:14:50;;;;;;;2.65;1.83;;;;;;;7.63;45.48;94899.84;5070763;28;20020;-66
2022/04/09 11:17:30;;;;;;;3.15;2.00;;;;;;;7.87;45.22;94907.63;5069902;28;20051;-64
2022/04/09 11:20:01;;;;;;;5.10;2.30;;;;;;;8.05;44.69;94859.09;5070304;28;20032;-64
2022/04/09 11:22:35;;;;;;;2.17;1.98;;;;;;;7.50;46.14;94902.16;5073864;28;20469;-63
2022/04/09 11:25:01;;;;;;;3.55;2.45;;;;;;;7.17;44.05;94694.25;5074523;28;20032;-64
2022/04/09 11:27:28;;;;;;;1.75;1.65;;;;;;;8.59;44.51;94921.91;5074266;28;20024;-64
2022/04/09 11:29:55;;;;;;;3.25;1.90;;;;;;;8.02;42.36;94738.63;5074209;28;20032;-64
2022/04/09 11:32:21;;;;;;;4.75;2.17;;;;;;;8.99;41.99;94759.53;5073582;28;20103;-61
2022/04/09 11:34:49;;;;;;;9.80;1.92;;;;;;;9.40;42.05;94873.44;5074124;28;20108;-64
2022/04/09 11:37:15;;;;;;;3.67;1.38;;;;;;;9.68;40.17;94881.28;5074047;28;20377;-64